createdAt,value
2022-11-18T00:01:20.316Z,2.30
2022-11-18T00:03:48.089Z,2.60
2022-11-18T00:06:17.759Z,2.10
2022-11-18T00:08:44.974Z,2.72
2022-11-18T00:11:34.618Z,2.83
2022-11-18T00:14:19.653Z,2.20
2022-11-18T00:16:54.878Z,3.22
2022-11-18T00:19:24.663Z,2.35
2022-11-18T00:21:52.970Z,2.72
2022-11-18T00:24:20.705Z,3.10
2022-11-18T00:26:48.195Z,2.55
2022-11-18T00:29:15.859Z,2.47
2022-11-18T00:31:43.598Z,2.38
2022-11-18T00:34:15.601Z,2.53
2022-11-18T00:36:43.707Z,2.67
2022-11-18T00:39:12.536Z,2.83
2022-11-18T00:41:57.912Z,2.67
2022-11-18T00:44:24.857Z,3.20
2022-11-18T00:46:53.817Z,2.83
2022-11-18T00:49:20.947Z,2.67
2022-11-18T00:51:47.825Z,3.05
2022-11-18T00:54:14.748Z,2.03
2022-11-18T00:56:41.554Z,2.70
2022-11-18T00:59:08.493Z,2.70
2022-11-18T01:01:35.433Z,2.50
2022-11-18T01:04:03.469Z,2.45
2022-11-18T01:06:32.612Z,2.70
2022-11-18T01:08:59.521Z,1.80
2022-11-18T01:11:45.866Z,2.30
2022-11-18T01:14:12.801Z,2.42
2022-11-18T01:16:39.579Z,2.10
2022-11-18T01:19:07.717Z,2.15
2022-11-18T01:21:34.765Z,1.98
2022-11-18T01:24:01.699Z,1.70
2022-11-18T01:26:28.493Z,1.83
2022-11-18T01:29:00.302Z,1.83
2022-11-18T01:31:27.249Z,1.70
2022-11-18T01:33:54.084Z,1.45
2022-11-18T01:36:23.994Z,1.60
2022-11-18T01:38:51.765Z,2.20
2022-11-18T01:41:20.571Z,2.13
2022-11-18T01:44:32.140Z,2.10
2022-11-18T01:46:58.989Z,2.08
2022-11-18T01:49:26.065Z,2.63
2022-11-18T01:51:57.485Z,1.90
2022-11-18T01:54:28.351Z,2.40
2022-11-18T01:57:00.625Z,2.38
2022-11-18T01:59:35.908Z,2.53
2022-11-18T02:02:09.285Z,1.90
2022-11-18T02:04:36.252Z,2.25
2022-11-18T02:07:03.168Z,1.65
2022-11-18T02:09:30.546Z,2.00
2022-11-18T02:11:57.637Z,2.20
2022-11-18T02:14:28.371Z,2.13
2022-11-18T02:17:25.361Z,2.10
2022-11-18T02:20:05.821Z,2.05
2022-11-18T02:22:45.819Z,2.10
2022-11-18T02:25:52.108Z,1.83
2022-11-18T02:28:56.953Z,1.90
2022-11-18T02:31:47.178Z,1.45
2022-11-18T02:34:37.681Z,2.05
2022-11-18T02:37:05.750Z,1.95
2022-11-18T02:39:38.097Z,1.77
2022-11-18T02:42:09.372Z,2.10
2022-11-18T02:44:38.450Z,1.98
2022-11-18T02:47:08.292Z,2.55
2022-11-18T02:49:43.499Z,1.90
2022-11-18T02:52:12.446Z,2.10
2022-11-18T02:54:41.921Z,2.03
2022-11-18T02:57:09.525Z,2.17
2022-11-18T02:59:36.354Z,2.45
2022-11-18T03:02:04.616Z,2.15
2022-11-18T03:04:35.550Z,2.17
2022-11-18T03:07:11.004Z,2.42
2022-11-18T03:09:42.463Z,2.38
2022-11-18T03:12:26.442Z,2.10
2022-11-18T03:14:56.310Z,2.60
2022-11-18T03:17:55.639Z,2.33
2022-11-18T03:20:26.438Z,2.28
2022-11-18T03:23:06.178Z,2.40
2022-11-18T03:25:51.528Z,2.33
2022-11-18T03:28:43.040Z,2.28
2022-11-18T03:31:38.356Z,1.98
2022-11-18T03:34:14.920Z,2.00
2022-11-18T03:36:51.641Z,1.92
2022-11-18T03:39:21.611Z,2.38
2022-11-18T03:42:01.026Z,2.30
2022-11-18T03:44:34.801Z,2.40
2022-11-18T03:47:09.624Z,2.47
2022-11-18T03:49:43.253Z,2.17
2022-11-18T03:52:22.178Z,2.92
2022-11-18T03:54:54.512Z,2.65
2022-11-18T03:57:31.990Z,2.35
2022-11-18T04:00:10.995Z,2.65
2022-11-18T04:02:38.964Z,2.15
2022-11-18T04:05:12.333Z,3.00
2022-11-18T04:07:54.602Z,2.42
2022-11-18T04:10:33.406Z,1.90
2022-11-18T04:13:28.497Z,2.55
2022-11-18T04:15:55.885Z,2.25
2022-11-18T04:18:23.009Z,2.35
2022-11-18T04:20:51.073Z,2.10
2022-11-18T04:23:17.947Z,2.10
2022-11-18T04:25:45.463Z,2.20
2022-11-18T04:28:12.528Z,2.42
2022-11-18T04:30:39.602Z,2.33
2022-11-18T04:33:07.679Z,2.30
2022-11-18T04:35:34.549Z,2.15
2022-11-18T04:38:01.320Z,2.47
2022-11-18T04:40:29.282Z,2.53
2022-11-18T04:42:57.464Z,2.42
2022-11-18T04:45:24.397Z,3.05
2022-11-18T04:47:53.212Z,2.67
2022-11-18T04:50:20.069Z,2.78
2022-11-18T04:52:46.927Z,3.03
2022-11-18T04:55:13.825Z,2.70
2022-11-18T04:57:40.852Z,2.53
2022-11-18T05:00:09.422Z,2.45
2022-11-18T05:02:36.341Z,2.83
2022-11-18T05:05:03.428Z,2.90
2022-11-18T05:07:30.284Z,2.60
2022-11-18T05:09:57.326Z,3.08
2022-11-18T05:12:42.704Z,3.35
2022-11-18T05:15:09.619Z,2.63
2022-11-18T05:17:36.436Z,2.40
2022-11-18T05:20:03.557Z,2.67
2022-11-18T05:22:30.357Z,2.63
2022-11-18T05:24:57.169Z,2.75
2022-11-18T05:27:29.072Z,1.80
2022-11-18T05:29:57.362Z,2.38
2022-11-18T05:32:24.150Z,2.58
2022-11-18T05:34:52.447Z,2.63
2022-11-18T05:37:19.351Z,2.22
2022-11-18T05:39:46.205Z,2.22
2022-11-18T05:42:31.640Z,2.13
2022-11-18T05:44:59.096Z,1.60
2022-11-18T05:47:27.443Z,2.20
2022-11-18T05:49:54.476Z,2.28
2022-11-18T05:52:21.228Z,2.17
2022-11-18T05:54:50.898Z,1.95
2022-11-18T05:57:17.891Z,2.22
2022-11-18T05:59:44.785Z,2.63
2022-11-18T06:02:22.125Z,2.25
2022-11-18T06:05:00.871Z,2.85
2022-11-18T06:07:39.216Z,2.60
2022-11-18T06:10:07.026Z,2.45
2022-11-18T06:12:39.816Z,2.55
2022-11-18T06:15:14.928Z,2.70
2022-11-18T06:17:52.623Z,2.17
2022-11-18T06:20:20.900Z,2.72
2022-11-18T06:22:51.537Z,2.50
2022-11-18T06:25:18.880Z,2.20
2022-11-18T06:27:47.401Z,2.55
2022-11-18T06:30:16.690Z,2.13
2022-11-18T06:32:43.578Z,2.10
2022-11-18T06:35:11.850Z,2.13
2022-11-18T06:37:39.825Z,3.05
2022-11-18T06:40:07.733Z,2.80
2022-11-18T06:42:54.065Z,2.63
2022-11-18T06:45:21.082Z,2.35
2022-11-18T06:47:49.541Z,2.38
2022-11-18T06:50:16.740Z,2.55
2022-11-18T06:52:43.608Z,2.53
2022-11-18T06:55:10.570Z,2.50
2022-11-18T06:57:38.672Z,2.40
2022-11-18T07:00:06.430Z,1.63
2022-11-18T07:02:36.263Z,2.55
2022-11-18T07:05:04.499Z,2.47
2022-11-18T07:07:31.532Z,2.38
2022-11-18T07:09:58.496Z,2.10
2022-11-18T07:12:31.190Z,2.42
2022-11-18T07:15:01.170Z,1.83
2022-11-18T07:17:30.723Z,1.77
2022-11-18T07:19:59.298Z,2.78
2022-11-18T07:22:27.714Z,2.30
2022-11-18T07:24:55.580Z,2.22
2022-11-18T07:27:22.369Z,2.30
2022-11-18T07:29:49.288Z,2.53
2022-11-18T07:32:16.108Z,2.05
2022-11-18T07:34:43.348Z,2.17
2022-11-18T07:37:10.218Z,2.53
2022-11-18T07:39:37.056Z,1.75
2022-11-18T07:42:05.230Z,1.65
2022-11-18T07:44:32.250Z,2.63
2022-11-18T07:46:59.113Z,2.33
2022-11-18T07:49:27.103Z,2.72
2022-11-18T07:51:54.597Z,1.40
2022-11-18T07:54:21.622Z,3.00
2022-11-18T07:56:50.490Z,2.08
2022-11-18T07:59:17.647Z,1.63
2022-11-18T08:01:44.795Z,2.50
2022-11-18T08:04:14.098Z,3.00
2022-11-18T08:06:41.153Z,2.55
2022-11-18T08:09:09.126Z,2.88
2022-11-18T08:11:36.500Z,2.90
2022-11-18T08:14:03.690Z,2.60
2022-11-18T08:16:30.638Z,3.30
2022-11-18T08:19:00.667Z,2.83
2022-11-18T08:21:29.827Z,2.60
2022-11-18T08:23:58.713Z,3.33
2022-11-18T08:26:26.488Z,2.88
2022-11-18T08:28:54.102Z,2.72
2022-11-18T08:31:25.259Z,2.95
2022-11-18T08:34:08.072Z,3.17
2022-11-18T08:39:06.194Z,2.95
2022-11-18T08:41:35.623Z,2.80
2022-11-18T08:44:04.896Z,2.40
2022-11-18T08:46:31.780Z,2.92
2022-11-18T08:48:59.689Z,2.55
2022-11-18T08:51:27.133Z,3.17
2022-11-18T08:53:56.318Z,3.22
2022-11-18T08:56:24.797Z,3.78
2022-11-18T08:58:53.603Z,3.33
2022-11-18T09:01:20.624Z,3.53
2022-11-18T09:03:48.600Z,3.55
2022-11-18T09:06:21.660Z,3.60
2022-11-18T09:08:48.640Z,2.00
2022-11-18T09:11:18.495Z,3.67
2022-11-18T09:14:39.052Z,3.20
2022-11-18T09:16:35.535Z,2.88
2022-11-18T09:19:18.619Z,2.58
2022-11-18T09:21:49.792Z,3.17
2022-11-18T09:24:17.333Z,3.15
2022-11-18T09:26:44.529Z,2.20
2022-11-18T09:29:14.760Z,2.50
2022-11-18T09:31:42.636Z,2.30
2022-11-18T09:34:10.461Z,3.28
2022-11-18T09:36:38.326Z,2.25
2022-11-18T09:39:05.150Z,1.88
2022-11-18T09:41:45.514Z,2.83
2022-11-18T09:44:57.115Z,3.00
2022-11-18T09:47:32.693Z,2.78
2022-11-18T09:50:33.861Z,2.25
2022-11-18T09:53:23.314Z,2.13
2022-11-18T09:55:51.857Z,3.95
2022-11-18T09:58:27.445Z,2.35
2022-11-18T10:00:54.807Z,2.13
2022-11-18T10:03:33.053Z,2.35
2022-11-18T10:06:10.566Z,2.67
2022-11-18T10:08:40.271Z,2.55
2022-11-18T10:11:21.164Z,2.45
2022-11-18T10:14:01.381Z,2.50
2022-11-18T10:16:35.528Z,2.15
2022-11-18T10:19:23.023Z,1.90
2022-11-18T10:22:38.619Z,2.42
2022-11-18T10:25:16.256Z,2.33
2022-11-18T10:27:46.211Z,1.70
2022-11-18T10:30:14.331Z,1.90
2022-11-18T10:33:01.064Z,2.20
2022-11-18T10:35:35.096Z,1.60
2022-11-18T10:38:16.160Z,2.53
2022-11-18T10:40:50.458Z,2.38
2022-11-18T10:43:50.322Z,2.13
2022-11-18T10:46:26.013Z,2.40
2022-11-18T10:49:08.383Z,1.80
2022-11-18T10:51:36.863Z,1.50
2022-11-18T10:54:22.528Z,1.55
2022-11-18T10:57:11.397Z,1.83
2022-11-18T10:59:57.890Z,1.90
2022-11-18T11:02:34.451Z,1.80
2022-11-18T11:05:15.325Z,1.92
2022-11-18T11:07:43.791Z,1.75
2022-11-18T11:10:12.821Z,1.85
2022-11-18T11:12:47.680Z,1.60
2022-11-18T11:15:24.896Z,1.80
2022-11-18T11:18:24.646Z,1.80
2022-11-18T11:20:52.810Z,1.88
2022-11-18T11:23:23.638Z,1.77
2022-11-18T11:29:30.413Z,1.77
2022-11-18T11:32:24.337Z,1.38
2022-11-18T11:35:22.079Z,1.80
2022-11-18T11:37:58.555Z,1.70
2022-11-18T11:40:29.618Z,2.03
2022-11-18T11:43:34.427Z,2.00
2022-11-18T11:46:04.128Z,2.47
2022-11-18T11:48:58.802Z,1.42
2022-11-18T11:51:34.348Z,1.67
2022-11-18T11:54:25.554Z,2.10
2022-11-18T11:57:10.851Z,2.08
2022-11-18T11:59:50.125Z,1.80
2022-11-18T12:02:23.266Z,2.35
2022-11-18T12:04:55.524Z,2.35
2022-11-18T12:07:26.536Z,2.20
2022-11-18T12:10:23.759Z,2.42
2022-11-18T12:13:13.404Z,2.13
2022-11-18T12:16:08.397Z,1.90
2022-11-18T12:19:01.142Z,1.90
2022-11-18T12:21:46.385Z,1.92
2022-11-18T12:24:39.591Z,1.80
2022-11-18T12:27:09.195Z,2.00
2022-11-18T12:29:51.064Z,2.22
2022-11-18T12:32:27.725Z,2.15
2022-11-18T12:35:04.509Z,1.63
2022-11-18T12:37:51.505Z,2.35
2022-11-18T12:40:36.606Z,1.80
2022-11-18T12:43:31.837Z,2.17
2022-11-18T12:45:59.876Z,2.03
2022-11-18T12:48:38.846Z,1.63
2022-11-18T12:51:15.161Z,1.80
2022-11-18T12:53:46.284Z,2.25
2022-11-18T12:56:17.024Z,2.05
2022-11-18T12:58:49.122Z,1.90
2022-11-18T13:01:22.962Z,1.70
2022-11-18T13:03:51.122Z,2.13
2022-11-18T13:06:25.297Z,2.10
2022-11-18T13:09:14.804Z,2.13
2022-11-18T13:11:53.942Z,1.67
2022-11-18T13:14:52.995Z,2.55
2022-11-18T13:17:52.288Z,2.35
2022-11-18T13:20:31.396Z,2.20
2022-11-18T13:23:23.100Z,2.60
2022-11-18T13:25:50.917Z,2.00
2022-11-18T13:28:56.925Z,2.22
2022-11-18T13:31:50.800Z,2.00
2022-11-18T13:34:26.320Z,2.22
2022-11-18T13:36:55.277Z,1.70
2022-11-18T13:39:31.356Z,1.80
2022-11-18T13:42:05.424Z,1.90
2022-11-18T13:44:37.412Z,2.35
2022-11-18T13:47:11.396Z,2.65
2022-11-18T13:50:04.640Z,2.30
2022-11-18T13:52:42.776Z,2.38
2022-11-18T13:55:20.011Z,2.38
2022-11-18T13:59:16.976Z,2.00
2022-11-18T14:01:47.213Z,2.70
2022-11-18T14:04:27.520Z,2.08
2022-11-18T14:07:16.776Z,2.00
2022-11-18T14:10:02.850Z,2.00
2022-11-18T14:12:32.719Z,2.33
2022-11-18T14:15:32.689Z,2.05
2022-11-18T14:18:01.694Z,2.63
2022-11-18T14:20:30.679Z,1.70
2022-11-18T14:23:01.098Z,2.10
2022-11-18T14:25:33.556Z,2.00
2022-11-18T14:28:11.995Z,2.10
2022-11-18T14:30:55.817Z,2.45
2022-11-18T14:33:24.861Z,2.15
2022-11-18T14:36:03.430Z,2.05
2022-11-18T14:41:48.208Z,3.20
2022-11-18T14:44:16.505Z,2.60
2022-11-18T14:46:46.977Z,3.20
2022-11-18T14:49:18.513Z,3.20
2022-11-18T14:51:46.915Z,3.38
2022-11-18T14:54:22.311Z,4.07
2022-11-18T14:56:56.956Z,3.08
2022-11-18T14:59:24.305Z,2.50
2022-11-18T15:01:52.267Z,3.30
2022-11-18T15:04:21.943Z,2.58
2022-11-18T15:06:49.328Z,3.72
2022-11-18T15:09:17.218Z,2.90
2022-11-18T15:11:45.517Z,2.78
2022-11-18T15:14:13.496Z,2.53
2022-11-18T15:16:41.437Z,2.70
2022-11-18T15:19:15.202Z,2.85
2022-11-18T15:21:43.179Z,2.35
2022-11-18T15:24:11.124Z,2.90
2022-11-18T15:26:43.809Z,3.08
2022-11-18T15:31:55.785Z,2.28
2022-11-18T15:34:25.183Z,2.33
2022-11-18T15:36:52.280Z,3.00
2022-11-18T15:39:22.689Z,3.80
2022-11-18T15:41:51.588Z,3.47
2022-11-18T15:44:19.076Z,3.25
2022-11-18T15:46:48.019Z,2.60
2022-11-18T15:49:17.631Z,2.75
2022-11-18T15:51:45.546Z,2.85
2022-11-18T15:54:13.486Z,2.55
2022-11-18T15:56:43.592Z,2.70
2022-11-18T15:59:12.861Z,2.58
2022-11-18T16:01:46.486Z,2.72
2022-11-18T16:04:16.760Z,2.83
2022-11-18T16:06:44.307Z,2.28
2022-11-18T16:09:13.861Z,2.45
2022-11-18T16:12:00.812Z,2.65
2022-11-18T16:14:28.824Z,2.28
2022-11-18T16:16:56.721Z,2.47
2022-11-18T16:19:26.744Z,2.50
2022-11-18T16:21:56.992Z,2.55
2022-11-18T16:24:29.091Z,2.22
2022-11-18T16:26:57.553Z,2.50
2022-11-18T16:29:25.652Z,2.55
2022-11-18T16:31:54.429Z,2.55
2022-11-18T16:34:25.723Z,2.78
2022-11-18T16:36:54.718Z,2.75
2022-11-18T16:39:25.588Z,2.90
2022-11-18T16:42:07.394Z,2.80
2022-11-18T16:44:36.166Z,2.42
2022-11-18T16:47:06.465Z,3.38
2022-11-18T16:49:39.113Z,3.17
2022-11-18T16:52:08.074Z,3.10
2022-11-18T16:54:41.094Z,3.33
2022-11-18T16:57:11.702Z,3.28
2022-11-18T16:59:38.549Z,2.55
2022-11-18T17:02:07.005Z,3.00
2022-11-18T17:04:37.091Z,3.17
2022-11-18T17:07:04.624Z,3.05
2022-11-18T17:09:32.467Z,3.10
2022-11-18T17:11:59.932Z,4.03
2022-11-18T17:14:29.980Z,3.20
2022-11-18T17:16:59.796Z,3.28
2022-11-18T17:19:26.973Z,3.15
2022-11-18T17:21:55.785Z,3.38
2022-11-18T17:24:23.898Z,2.67
2022-11-18T17:26:52.157Z,3.65
2022-11-18T17:29:23.224Z,3.30
2022-11-18T17:31:51.219Z,3.35
2022-11-18T17:34:19.128Z,3.47
2022-11-18T17:36:48.792Z,3.58
2022-11-18T17:39:17.487Z,3.85
2022-11-18T17:42:06.320Z,3.92
2022-11-18T17:44:34.177Z,4.05
2022-11-18T17:47:02.869Z,4.18
2022-11-18T17:49:32.201Z,4.15
2022-11-18T17:52:00.359Z,4.70
2022-11-18T17:54:28.387Z,4.32
2022-11-18T17:56:56.290Z,4.82
2022-11-18T17:59:23.224Z,6.38
2022-11-18T18:01:55.698Z,5.72
2022-11-18T18:04:29.158Z,4.18
2022-11-18T18:06:57.237Z,4.18
2022-11-18T18:09:31.087Z,4.75
2022-11-18T18:11:59.672Z,4.35
2022-11-18T18:14:26.544Z,5.95
2022-11-18T18:16:54.510Z,4.88
2022-11-18T18:19:23.840Z,5.20
2022-11-18T18:21:51.126Z,5.32
2022-11-18T18:24:20.457Z,4.72
2022-11-18T18:26:47.782Z,5.90
2022-11-18T18:29:20.167Z,5.38
2022-11-18T18:31:47.328Z,6.25
2022-11-18T18:34:14.213Z,5.32
2022-11-18T18:36:42.514Z,5.38
2022-11-18T18:39:11.609Z,5.57
2022-11-18T18:41:39.585Z,5.55
2022-11-18T18:44:06.779Z,6.00
2022-11-18T18:46:36.709Z,5.90
2022-11-18T18:49:06.480Z,5.93
2022-11-18T18:51:44.318Z,6.10
2022-11-18T18:54:13.319Z,6.05
2022-11-18T18:56:40.711Z,10.63
2022-11-18T18:59:09.308Z,6.80
2022-11-18T19:01:38.168Z,5.95
2022-11-18T19:04:07.208Z,6.28
2022-11-18T19:09:27.778Z,6.93
2022-11-18T19:12:15.742Z,6.38
2022-11-18T19:14:43.747Z,6.00
2022-11-18T19:17:13.012Z,6.45
2022-11-18T19:20:01.437Z,6.40
2022-11-18T19:22:33.163Z,6.85
2022-11-18T19:25:01.549Z,7.13
2022-11-18T19:27:29.071Z,7.45
2022-11-18T19:29:56.184Z,7.07
2022-11-18T19:32:23.580Z,7.50
2022-11-18T19:34:51.642Z,7.03
2022-11-18T19:37:19.593Z,6.30
2022-11-18T19:39:49.570Z,7.72
2022-11-18T19:42:17.505Z,6.70
2022-11-18T19:44:46.496Z,7.85
2022-11-18T19:47:16.089Z,7.00
2022-11-18T19:49:45.130Z,6.80
2022-11-18T19:52:13.088Z,7.78
2022-11-18T19:54:42.149Z,6.80
2022-11-18T19:57:09.148Z,7.53
2022-11-18T19:59:36.111Z,7.55
2022-11-18T20:05:07.333Z,7.50
2022-11-18T20:07:36.006Z,8.20
2022-11-18T20:10:06.782Z,8.07
2022-11-18T20:12:35.410Z,8.40
2022-11-18T20:15:03.478Z,8.85
2022-11-18T20:17:30.535Z,8.85
2022-11-18T20:19:58.791Z,8.68
2022-11-18T20:22:28.825Z,8.73
2022-11-18T20:24:56.836Z,8.52
2022-11-18T20:27:23.885Z,8.88
2022-11-18T20:29:50.971Z,8.95
2022-11-18T20:32:18.975Z,9.32
2022-11-18T20:34:47.935Z,9.88
2022-11-18T20:37:18.070Z,9.75
2022-11-18T20:39:45.452Z,9.35
2022-11-18T20:42:33.268Z,9.48
2022-11-18T20:45:00.480Z,9.75
2022-11-18T20:47:27.535Z,9.88
2022-11-18T20:50:00.329Z,9.43
2022-11-18T20:52:28.440Z,9.95
2022-11-18T20:54:55.284Z,9.52
2022-11-18T20:57:23.219Z,9.50
2022-11-18T20:59:50.149Z,9.60
2022-11-18T21:02:17.231Z,10.27
2022-11-18T21:04:47.437Z,10.93
2022-11-18T21:07:16.134Z,11.05
2022-11-18T21:09:43.017Z,9.63
2022-11-18T21:12:11.124Z,11.05
2022-11-18T21:14:38.351Z,10.63
2022-11-18T21:17:05.416Z,11.32
2022-11-18T21:19:34.042Z,11.57
2022-11-18T21:22:02.149Z,11.32
2022-11-18T21:24:35.408Z,11.00
2022-11-18T21:27:04.871Z,11.35
2022-11-18T21:29:33.146Z,10.77
2022-11-18T21:32:04.187Z,11.65
2022-11-18T21:34:32.222Z,11.45
2022-11-18T21:36:59.226Z,12.43
2022-11-18T21:39:27.235Z,13.07
2022-11-18T21:42:01.351Z,14.02
2022-11-18T21:44:28.882Z,14.20
2022-11-18T21:46:56.305Z,15.07
2022-11-18T21:49:23.882Z,14.95
2022-11-18T21:51:52.126Z,16.13
2022-11-18T21:54:20.129Z,16.05
2022-11-18T21:56:49.087Z,16.58
2022-11-18T22:01:56.945Z,16.25
2022-11-18T22:04:42.317Z,17.27
2022-11-18T22:07:10.593Z,17.42
2022-11-18T22:09:37.451Z,15.95
2022-11-18T22:12:08.211Z,17.58
2022-11-18T22:14:36.452Z,17.88
2022-11-18T22:17:05.122Z,18.83
2022-11-18T22:19:32.096Z,19.98
2022-11-18T22:21:59.008Z,18.20
2022-11-18T22:24:27.179Z,18.75
2022-11-18T22:26:55.057Z,17.25
2022-11-18T22:29:24.275Z,18.65
2022-11-18T22:31:53.338Z,17.05
2022-11-18T22:34:21.856Z,16.73
2022-11-18T22:36:48.751Z,16.13
2022-11-18T22:39:19.723Z,17.85
2022-11-18T22:42:05.393Z,17.08
2022-11-18T22:44:32.389Z,16.98
2022-11-18T22:46:59.387Z,16.33
2022-11-18T22:49:27.463Z,16.67
2022-11-18T22:51:54.478Z,15.38
2022-11-18T22:57:08.847Z,16.45
2022-11-18T22:59:36.100Z,15.68
2022-11-18T23:02:03.208Z,16.10
2022-11-18T23:04:30.209Z,16.65
2022-11-18T23:06:57.214Z,17.80
2022-11-18T23:09:24.051Z,16.77
2022-11-18T23:12:09.749Z,16.70
2022-11-18T23:14:36.669Z,17.45
2022-11-18T23:17:05.308Z,17.40
2022-11-18T23:19:32.207Z,18.13
2022-11-18T23:21:59.209Z,16.52
2022-11-18T23:24:26.193Z,16.50
2022-11-18T23:26:53.045Z,16.70
2022-11-18T23:29:20.590Z,17.70
2022-11-18T23:31:48.829Z,17.05
2022-11-18T23:34:16.473Z,17.33
2022-11-18T23:36:43.752Z,16.13
2022-11-18T23:39:10.829Z,16.92
2022-11-18T23:41:37.924Z,16.92
2022-11-18T23:44:05.464Z,17.20
2022-11-18T23:46:33.147Z,17.08
2022-11-18T23:49:02.273Z,18.38
2022-11-18T23:51:29.208Z,17.88
2022-11-18T23:53:57.548Z,17.15
2022-11-18T23:56:27.114Z,17.40
2022-11-18T23:58:56.068Z,16.45
